This is the latest recevied weather packets stored in our database for station/object SA7BGG-5. If no packets are shown the sender has not sent any weather packets the latest 10 day(s).
| Time | Temp. | Humidity | Pressure | Rain* | Wind** | Luminosity | Snow |
|---|---|---|---|---|---|---|---|
| 1778060701 | 12.22° C | 67% | 1016 hPa | - | - | - | - |
| 1778060400 | 12.22° C | 67% | 1016 hPa | - | - | - | - |
| 1778060100 | 12.22° C | 67% | 1016 hPa | - | - | - | - |
| 1778059805 | 12.22° C | 67% | 1016 hPa | - | - | - | - |
| 1778059505 | 12.22° C | 67% | 1016 hPa | - | - | - | - |
| 1778059204 | 12.22° C | 67% | 1016 hPa | - | - | - | - |
| 1778058904 | 12.22° C | 66% | 1016 hPa | - | - | - | - |
| 1778058603 | 12.22° C | 66% | 1016 hPa | - | - | - | - |
| 1778058303 | 12.22° C | 64% | 1016 hPa | - | - | - | - |
| 1778058003 | 12.22° C | 64% | 1016 hPa | - | - | - | - |
| 1778057703 | 12.22° C | 65% | 1016 hPa | - | - | - | - |
| 1778057403 | 12.22° C | 65% | 1016 hPa | - | - | - | - |
| 1778057102 | 11.67° C | 67% | 1016 hPa | - | - | - | - |
| 1778056802 | 11.67° C | 67% | 1016 hPa | - | - | - | - |
| 1778056502 | 11.67° C | 70% | 1016 hPa | - | - | - | - |
| 1778056201 | 11.67° C | 70% | 1016 hPa | - | - | - | - |
| 1778055901 | 10.56° C | 73% | 1016 hPa | - | - | - | - |
| 1778055601 | 10.56° C | 73% | 1016 hPa | - | - | - | - |
| 1778055301 | 10.56° C | 78% | 1016 hPa | - | - | - | - |
| 1778055000 | 10.56° C | 78% | 1016 hPa | - | - | - | - |
| 1778054705 | 9.44° C | 82% | 1016 hPa | - | - | - | - |
| 1778054405 | 9.44° C | 82% | 1016 hPa | - | - | - | - |
| 1778054105 | 8.89° C | 85% | 1015 hPa | - | - | - | - |
| 1778053804 | 8.89° C | 85% | 1015 hPa | - | - | - | - |
| 1778053504 | 8.33° C | 85% | 1016 hPa | - | - | - | - |
* Rain since midnight (hover to see other rain measurements)
** Current wind speed in m/s (hover to see current wind gust speed)